Time;durP1;ratioP1;P1;durP2;ratioP2;P2;SDS_P1;SDS_P2;PMS_P1;PMS_P2;Temp;Humidity;BMP_temperature;BMP_pressure;BME280_temperature;BME280_humidity;BME280_pressure;Samples;Min_cycle;Max_cycle;Signal;HPM_P1;HPM_P2
2021/06/21 00:00:32;;;;;;;16.73;7.92;;;24.70;79.00;;;;;;1863218;77;21031;-55
2021/06/21 00:03:01;;;;;;;11.80;6.55;;;24.70;79.00;;;;;;1863121;77;20999;-55
2021/06/21 00:05:30;;;;;;;9.45;5.60;;;24.60;79.20;;;;;;1863149;77;21035;-56
2021/06/21 00:08:00;;;;;;;14.60;5.75;;;24.60;79.30;;;;;;1863081;76;21007;-55
2021/06/21 00:10:30;;;;;;;17.25;7.12;;;24.60;79.40;;;;;;1863118;77;21003;-54
2021/06/21 00:12:59;;;;;;;11.83;7.30;;;24.50;79.50;;;;;;1863157;77;21489;-54
2021/06/21 00:15:29;;;;;;;14.13;6.75;;;24.50;79.50;;;;;;1863249;76;21063;-55
2021/06/21 00:17:58;;;;;;;19.12;7.25;;;24.50;79.70;;;;;;1863099;75;21058;-54
2021/06/21 00:20:28;;;;;;;13.40;7.72;;;24.40;79.90;;;;;;1863207;76;21035;-55
2021/06/21 00:22:58;;;;;;;17.07;7.62;;;24.40;80.10;;;;;;1863218;76;21043;-55
2021/06/21 00:25:27;;;;;;;11.78;7.35;;;24.40;80.00;;;;;;1863073;77;21070;-55
2021/06/21 00:27:57;;;;;;;18.82;7.92;;;24.40;80.00;;;;;;1863069;77;21007;-55
2021/06/21 00:30:26;;;;;;;13.20;7.40;;;24.40;79.80;;;;;;1863082;76;21096;-56
2021/06/21 00:32:56;;;;;;;23.35;8.78;;;24.30;79.90;;;;;;1863134;77;21097;-54
2021/06/21 00:35:25;;;;;;;29.42;7.58;;;24.20;80.00;;;;;;1863109;76;21089;-55
2021/06/21 00:37:55;;;;;;;13.55;6.97;;;24.10;80.20;;;;;;1863143;77;21058;-55
2021/06/21 00:40:25;;;;;;;17.65;7.40;;;24.10;80.60;;;;;;1863297;77;21101;-55
2021/06/21 00:42:54;;;;;;;15.80;6.30;;;24.10;80.70;;;;;;1863243;77;21172;-55
2021/06/21 00:45:24;;;;;;;12.80;6.35;;;24.10;80.70;;;;;;1863207;77;21055;-54
2021/06/21 00:47:54;;;;;;;14.85;7.35;;;24.20;80.70;;;;;;1863173;76;21152;-55
2021/06/21 00:50:25;;;;;;;11.08;6.60;;;24.20;80.70;;;;;;1863173;76;21030;-55
2021/06/21 00:52:57;;;;;;;9.90;6.45;;;24.30;80.60;;;;;;1863316;77;21732;-55
2021/06/21 00:55:28;;;;;;;15.35;6.22;;;24.20;80.40;;;;;;1863310;77;21042;-55
2021/06/21 00:57:58;;;;;;;10.00;6.75;;;24.30;80.40;;;;;;1863308;77;21031;-56
2021/06/21 01:00:30;;;;;;;13.08;7.22;;;24.30;80.40;;;;;;1863383;76;21085;-54
2021/06/21 01:03:03;;;;;;;12.45;6.35;;;24.30;80.30;;;;;;1863243;76;21022;-55
2021/06/21 01:05:34;;;;;;;15.60;6.97;;;24.30;80.30;;;;;;1863015;77;21113;-55
2021/06/21 01:08:05;;;;;;;10.18;6.08;;;24.30;80.20;;;;;;1863161;76;21051;-55
2021/06/21 01:10:37;;;;;;;11.70;6.45;;;24.30;80.30;;;;;;1863417;77;21019;-56
2021/06/21 01:13:12;;;;;;;11.28;6.28;;;24.20;80.20;;;;;;1863195;77;21089;-55
2021/06/21 01:15:53;;;;;;;15.13;6.67;;;24.20;80.10;;;;;;1863201;76;21074;-54
2021/06/21 01:18:26;;;;;;;12.47;6.83;;;24.20;80.00;;;;;;1877330;75;21116;-55
2021/06/21 01:21:16;;;;;;;10.43;6.47;;;24.10;80.20;;;;;;1897100;75;21026;-55
2021/06/21 01:24:03;;;;;;;11.97;6.45;;;24.00;80.50;;;;;;1895642;75;21022;-55
2021/06/21 01:26:45;;;;;;;10.05;6.55;;;24.00;80.70;;;;;;1897102;76;21064;-55
2021/06/21 01:29:46;;;;;;;11.12;6.17;;;24.00;80.60;;;;;;1896304;76;21026;-55
2021/06/21 01:32:27;;;;;;;11.50;6.47;;;24.00;80.60;;;;;;1896774;75;21050;-55
2021/06/21 01:34:58;;;;;;;10.53;6.10;;;24.00;80.70;;;;;;1897254;74;20998;-56
2021/06/21 01:37:28;;;;;;;13.93;6.12;;;24.00;80.70;;;;;;1897115;75;21034;-55
2021/06/21 01:40:00;;;;;;;14.87;7.20;;;24.00;81.20;;;;;;1897155;76;21065;-55
2021/06/21 01:42:31;;;;;;;10.90;6.08;;;24.00;80.70;;;;;;1897407;75;21087;-55
2021/06/21 01:45:03;;;;;;;15.30;7.03;;;24.00;80.60;;;;;;1897150;76;21107;-55
2021/06/21 01:47:33;;;;;;;10.82;6.45;;;24.00;80.50;;;;;;1897131;74;21030;-55
2021/06/21 01:50:05;;;;;;;15.80;7.33;;;24.00;80.50;;;;;;1897342;76;21123;-55
2021/06/21 01:52:39;;;;;;;15.98;6.28;;;24.00;80.80;;;;;;1897155;76;21028;-55
2021/06/21 01:55:11;;;;;;;14.10;6.50;;;23.90;80.80;;;;;;1897350;75;21097;-55
2021/06/21 01:57:41;;;;;;;18.48;7.20;;;24.00;81.20;;;;;;1897263;76;21480;-55
2021/06/21 02:00:11;;;;;;;17.27;6.90;;;23.90;80.40;;;;;;1897213;75;21026;-56
2021/06/21 02:02:42;;;;;;;11.50;6.87;;;23.90;80.60;;;;;;1897286;76;21092;-55
2021/06/21 02:05:14;;;;;;;13.50;6.42;;;23.90;80.80;;;;;;1897225;76;21030;-55
2021/06/21 02:07:45;;;;;;;13.88;6.85;;;23.80;80.80;;;;;;1897242;76;21443;-55
2021/06/21 02:10:16;;;;;;;15.35;6.17;;;23.80;81.00;;;;;;1897354;74;21041;-54
2021/06/21 02:12:47;;;;;;;11.70;6.62;;;23.80;81.20;;;;;;1897151;76;21022;-55
2021/06/21 02:15:17;;;;;;;7.80;5.62;;;23.90;81.30;;;;;;1897293;76;21026;-54
2021/06/21 02:17:46;;;;;;;12.45;6.75;;;23.90;81.20;;;;;;1897258;76;21095;-55
2021/06/21 02:20:17;;;;;;;10.20;6.15;;;23.90;81.70;;;;;;1897338;75;21033;-55
2021/06/21 02:22:47;;;;;;;11.12;6.45;;;23.90;81.20;;;;;;1897255;76;21111;-56
2021/06/21 02:25:17;;;;;;;12.23;6.15;;;23.90;81.20;;;;;;1897320;75;21084;-55
2021/06/21 02:27:47;;;;;;;19.98;7.17;;;23.90;81.10;;;;;;1897195;76;21029;-56
2021/06/21 02:30:18;;;;;;;14.65;6.55;;;24.00;81.10;;;;;;1897440;74;21037;-56
2021/06/21 02:32:48;;;;;;;12.50;6.22;;;24.00;81.00;;;;;;1897245;76;21460;-56
2021/06/21 02:35:18;;;;;;;12.50;6.67;;;24.00;81.00;;;;;;1897294;76;21030;-54
2021/06/21 02:37:47;;;;;;;9.63;6.50;;;24.00;80.90;;;;;;1897260;76;21002;-56
2021/06/21 02:40:17;;;;;;;8.15;5.37;;;24.00;80.90;;;;;;1897250;76;21119;-55
2021/06/21 02:42:47;;;;;;;12.07;5.95;;;24.00;81.10;;;;;;1897269;75;21054;-55
2021/06/21 02:45:16;;;;;;;13.88;6.05;;;24.00;81.10;;;;;;1897305;76;21021;-56
2021/06/21 02:47:46;;;;;;;18.57;8.35;;;24.10;81.20;;;;;;1897326;76;21006;-55
2021/06/21 02:50:15;;;;;;;11.48;7.53;;;24.10;81.20;;;;;;1897385;76;21042;-55
2021/06/21 02:52:56;;;;;;;12.47;6.40;;;24.20;81.20;;;;;;1897305;76;21066;-55
2021/06/21 02:55:45;;;;;;;15.93;8.78;;;24.20;81.20;;;;;;1896776;76;21009;-55
2021/06/21 02:58:20;;;;;;;11.20;6.28;;;24.30;81.10;;;;;;1897271;76;21112;-54
2021/06/21 03:00:54;;;;;;;11.22;6.45;;;24.40;81.10;;;;;;1897306;75;21092;-55
2021/06/21 03:03:26;;;;;;;15.90;6.92;;;24.40;81.10;;;;;;1897466;76;21045;-54
2021/06/21 03:05:57;;;;;;;16.07;7.35;;;24.50;81.10;;;;;;1897322;76;21100;-55
2021/06/21 03:08:28;;;;;;;16.70;6.80;;;24.50;81.10;;;;;;1897267;76;21021;-54
2021/06/21 03:10:59;;;;;;;13.48;7.35;;;24.60;81.20;;;;;;1897304;74;21005;-55
2021/06/21 03:13:29;;;;;;;16.82;7.72;;;24.60;81.20;;;;;;1897183;76;21060;-55
2021/06/21 03:16:00;;;;;;;16.35;6.90;;;24.70;81.20;;;;;;1897267;75;21025;-54
2021/06/21 03:18:30;;;;;;;20.37;9.73;;;24.80;81.20;;;;;;1897109;75;21026;-55
2021/06/21 03:21:00;;;;;;;18.55;8.90;;;24.80;81.10;;;;;;1897146;76;21030;-54
2021/06/21 03:23:31;;;;;;;19.12;9.23;;;24.80;81.20;;;;;;1897184;76;21046;-54
2021/06/21 03:26:05;;;;;;;27.67;10.30;;;24.80;81.30;;;;;;1897105;76;21096;-55
2021/06/21 03:28:35;;;;;;;20.50;9.58;;;24.90;81.60;;;;;;1897439;76;21026;-55
2021/06/21 03:31:09;;;;;;;18.35;10.30;;;24.80;81.60;;;;;;1897189;76;21029;-55
2021/06/21 03:33:39;;;;;;;20.80;10.43;;;24.80;81.70;;;;;;1897472;74;21091;-55
2021/06/21 03:36:08;;;;;;;28.12;12.07;;;24.80;81.80;;;;;;1897253;74;20994;-55
2021/06/21 03:38:38;;;;;;;20.77;11.35;;;24.80;82.00;;;;;;1897333;75;21018;-55
2021/06/21 03:41:08;;;;;;;22.45;11.40;;;24.80;82.10;;;;;;1897417;74;21087;-54
2021/06/21 03:43:37;;;;;;;21.12;12.70;;;24.80;82.20;;;;;;1897251;76;21029;-55
2021/06/21 03:46:09;;;;;;;27.48;12.82;;;24.80;82.30;;;;;;1897340;75;21037;-53
2021/06/21 03:48:38;;;;;;;27.13;14.07;;;24.80;82.30;;;;;;1897296;76;21103;-53
2021/06/21 03:51:08;;;;;;;30.43;14.87;;;24.80;82.60;;;;;;1897298;75;21091;-53
2021/06/21 03:53:37;;;;;;;46.02;17.62;;;24.90;82.60;;;;;;1897244;76;21057;-54
2021/06/21 03:56:06;;;;;;;64.32;20.90;;;25.00;82.70;;;;;;1897248;75;21037;-53
2021/06/21 03:58:36;;;;;;;27.02;13.32;;;25.10;82.50;;;;;;1897272;76;21009;-54
2021/06/21 04:01:05;;;;;;;27.98;13.70;;;25.20;82.30;;;;;;1897207;76;21077;-53
2021/06/21 04:03:35;;;;;;;25.70;14.23;;;25.40;82.00;;;;;;1897177;76;21010;-54
2021/06/21 04:06:05;;;;;;;28.17;14.28;;;25.60;81.50;;;;;;1897305;76;21038;-54
2021/06/21 04:08:34;;;;;;;24.52;13.62;;;25.60;81.00;;;;;;1897132;76;21437;-54
2021/06/21 04:11:04;;;;;;;22.05;14.13;;;25.70;80.90;;;;;;1897226;75;21049;-53
2021/06/21 04:13:34;;;;;;;29.15;14.45;;;25.70;80.90;;;;;;1897080;76;21166;-53
2021/06/21 04:16:05;;;;;;;31.52;13.85;;;25.70;80.80;;;;;;1897207;76;21104;-54
2021/06/21 04:18:34;;;;;;;26.57;13.55;;;25.80;80.80;;;;;;1896892;76;21030;-54
2021/06/21 04:21:04;;;;;;;27.75;14.20;;;25.80;80.70;;;;;;1897103;75;21144;-54
2021/06/21 04:23:33;;;;;;;26.33;13.08;;;25.90;80.60;;;;;;1896982;76;21084;-54
2021/06/21 04:26:03;;;;;;;35.20;15.35;;;26.00;80.50;;;;;;1896995;76;21503;-54
2021/06/21 04:28:32;;;;;;;20.17;12.40;;;26.10;80.20;;;;;;1896970;76;21026;-53
2021/06/21 04:31:02;;;;;;;24.23;12.45;;;26.10;80.10;;;;;;1897036;76;21029;-54
2021/06/21 04:33:31;;;;;;;25.68;12.28;;;26.20;80.10;;;;;;1897180;75;21054;-54
2021/06/21 04:36:01;;;;;;;21.40;11.68;;;26.20;80.10;;;;;;1897224;76;21033;-54
2021/06/21 04:38:30;;;;;;;25.82;14.25;;;26.30;80.00;;;;;;1897191;75;21030;-54
2021/06/21 04:41:00;;;;;;;26.02;13.58;;;26.40;79.80;;;;;;1897140;76;21010;-52
2021/06/21 04:43:29;;;;;;;21.48;11.73;;;26.50;79.60;;;;;;1897435;76;21096;-55
2021/06/21 04:45:58;;;;;;;19.57;11.50;;;26.60;79.30;;;;;;1897184;76;21030;-55
2021/06/21 04:48:28;;;;;;;23.25;11.03;;;26.60;79.00;;;;;;1897204;75;21022;-55
2021/06/21 04:50:57;;;;;;;21.00;11.05;;;26.70;78.90;;;;;;1897030;76;21111;-55
2021/06/21 04:53:27;;;;;;;21.48;11.65;;;26.80;78.60;;;;;;1897190;76;21029;-55
2021/06/21 04:55:59;;;;;;;18.07;10.45;;;26.90;78.50;;;;;;1897146;76;21049;-56
2021/06/21 04:58:34;;;;;;;18.98;10.65;;;27.10;78.30;;;;;;1897181;76;21538;-55
2021/06/21 05:00:59;;;;;;;17.55;9.90;;;27.20;78.20;;;;;;1896272;76;21025;-55
2021/06/21 05:03:28;;;;;;;18.07;8.90;;;27.30;77.80;;;;;;1897192;76;21001;-54
2021/06/21 05:05:58;;;;;;;20.30;10.08;;;27.30;77.30;;;;;;1897150;76;21022;-55
2021/06/21 05:08:28;;;;;;;18.67;9.25;;;27.40;77.00;;;;;;1897196;76;21026;-54
2021/06/21 05:10:58;;;;;;;17.25;9.73;;;27.50;76.80;;;;;;1897167;74;21099;-55
2021/06/21 05:13:27;;;;;;;26.95;10.78;;;27.60;76.70;;;;;;1897206;76;21010;-55
2021/06/21 05:15:56;;;;;;;18.17;10.90;;;27.70;76.50;;;;;;1897072;74;21025;-55
2021/06/21 05:18:26;;;;;;;21.37;12.03;;;27.80;76.40;;;;;;1897116;76;21006;-55
2021/06/21 05:20:55;;;;;;;29.77;13.20;;;27.80;76.20;;;;;;1880242;74;21042;-55
2021/06/21 05:23:25;;;;;;;26.50;11.00;;;27.90;75.80;;;;;;1863205;77;21031;-54
2021/06/21 05:25:54;;;;;;;20.57;9.43;;;28.00;75.60;;;;;;1863056;77;21098;-55
2021/06/21 05:28:24;;;;;;;23.15;9.98;;;28.00;75.50;;;;;;1863202;77;21054;-56
2021/06/21 05:30:54;;;;;;;32.80;11.48;;;28.00;75.50;;;;;;1863065;76;21078;-56
2021/06/21 05:33:24;;;;;;;33.42;11.48;;;28.10;75.10;;;;;;1863088;76;21106;-56
2021/06/21 05:35:54;;;;;;;18.10;9.80;;;28.10;74.90;;;;;;1863027;76;21075;-56
2021/06/21 05:38:23;;;;;;;21.17;9.73;;;28.20;75.00;;;;;;1863092;77;21081;-56
2021/06/21 05:40:53;;;;;;;16.17;9.60;;;28.30;74.80;;;;;;1863079;77;21085;-56
2021/06/21 05:43:22;;;;;;;23.38;9.65;;;28.30;74.60;;;;;;1863192;77;21024;-55
2021/06/21 05:45:52;;;;;;;43.13;14.30;;;28.40;74.40;;;;;;1863085;77;21027;-55
2021/06/21 05:48:21;;;;;;;20.70;9.10;;;28.50;74.10;;;;;;1863072;76;21027;-56
2021/06/21 05:50:51;;;;;;;19.75;8.38;;;28.50;73.70;;;;;;1863109;77;21062;-55
2021/06/21 05:53:20;;;;;;;12.15;7.12;;;28.60;73.70;;;;;;1863037;77;21023;-55
2021/06/21 05:55:49;;;;;;;15.35;7.33;;;28.70;73.20;;;;;;1863135;77;21050;-54
2021/06/21 05:58:19;;;;;;;23.87;8.13;;;28.80;72.20;;;;;;1863043;77;21055;-56
2021/06/21 06:00:48;;;;;;;12.00;6.00;;;28.80;72.00;;;;;;1863001;77;21031;-55
2021/06/21 06:03:18;;;;;;;13.43;5.83;;;28.80;71.30;;;;;;1863092;77;21157;-56
2021/06/21 06:05:47;;;;;;;11.03;5.20;;;28.80;70.60;;;;;;1863150;76;21156;-55
2021/06/21 06:08:17;;;;;;;28.57;15.18;;;28.90;70.40;;;;;;1863163;77;21035;-56
2021/06/21 06:10:46;;;;;;;36.60;18.98;;;29.00;70.80;;;;;;1863124;76;21003;-55
2021/06/21 06:13:16;;;;;;;32.85;18.67;;;29.00;71.00;;;;;;1863112;76;21039;-55
2021/06/21 06:15:45;;;;;;;43.45;19.15;;;29.10;71.20;;;;;;1863197;77;21089;-55
2021/06/21 06:18:16;;;;;;;33.42;16.48;;;29.20;71.50;;;;;;1863305;77;21070;-55
2021/06/21 06:20:45;;;;;;;28.87;15.58;;;29.30;71.50;;;;;;1868537;75;21053;-55
2021/06/21 06:23:15;;;;;;;33.92;14.20;;;29.40;71.40;;;;;;1897196;75;21134;-55
2021/06/21 06:25:44;;;;;;;36.42;14.35;;;29.50;71.10;;;;;;1897066;76;21080;-54
2021/06/21 06:28:14;;;;;;;25.65;11.97;;;29.50;71.40;;;;;;1897164;75;21091;-55
2021/06/21 06:30:43;;;;;;;20.60;10.05;;;29.60;71.00;;;;;;1897245;76;21042;-55
2021/06/21 06:33:13;;;;;;;20.60;11.12;;;29.60;70.40;;;;;;1897347;76;21045;-55
2021/06/21 06:35:42;;;;;;;23.32;10.68;;;29.60;70.70;;;;;;1897153;76;21087;-55
2021/06/21 06:38:12;;;;;;;33.98;13.10;;;29.60;70.60;;;;;;1897148;76;21108;-55
2021/06/21 06:40:42;;;;;;;25.60;12.50;;;29.60;70.60;;;;;;1897196;75;21034;-55
2021/06/21 06:43:12;;;;;;;25.55;12.20;;;29.70;70.30;;;;;;1897102;76;21029;-56
2021/06/21 06:45:41;;;;;;;26.52;11.97;;;29.70;70.40;;;;;;1897270;76;21022;-56
2021/06/21 06:48:10;;;;;;;16.02;9.05;;;29.80;70.20;;;;;;1897316;76;21006;-56
2021/06/21 06:50:40;;;;;;;20.70;8.80;;;29.90;69.90;;;;;;1897151;76;21029;-54
2021/06/21 06:53:09;;;;;;;19.20;8.25;;;30.00;69.30;;;;;;1897075;75;21119;-54
2021/06/21 06:58:25;;;;;;;17.90;8.03;;;29.90;68.60;;;;;;1897283;76;21050;-54
2021/06/21 07:00:55;;;;;;;18.20;8.15;;;29.90;68.80;;;;;;1897119;76;21127;-55
2021/06/21 07:03:24;;;;;;;19.85;8.43;;;30.00;68.90;;;;;;1897190;74;21201;-54
2021/06/21 07:05:54;;;;;;;18.57;6.85;;;30.00;68.90;;;;;;1897093;76;21030;-53
2021/06/21 07:08:23;;;;;;;11.65;6.35;;;30.10;68.40;;;;;;1896255;74;21108;-52
2021/06/21 07:10:53;;;;;;;11.57;6.67;;;30.20;67.90;;;;;;1896966;76;21084;-49
2021/06/21 07:13:33;;;;;;;12.03;6.53;;;30.20;67.00;;;;;;1906314;74;21101;-52
2021/06/21 07:16:06;;;;;;;14.58;6.55;;;30.20;67.20;;;;;;1923509;74;21122;-52
2021/06/21 07:18:35;;;;;;;10.68;5.50;;;30.20;66.70;;;;;;1933850;74;21089;-52
2021/06/21 07:21:05;;;;;;;18.20;6.05;;;30.30;67.10;;;;;;1895215;74;21072;-50
2021/06/21 07:23:35;;;;;;;15.63;5.70;;;30.30;66.40;;;;;;1884737;75;21131;-50
2021/06/21 07:26:06;;;;;;;14.68;5.47;;;30.30;66.20;;;;;;1870364;75;21098;-52
2021/06/21 07:28:35;;;;;;;14.38;6.00;;;30.30;66.20;;;;;;1861097;75;21184;-52
2021/06/21 07:31:05;;;;;;;13.72;6.58;;;30.30;66.00;;;;;;1880410;75;21082;-48
2021/06/21 07:33:34;;;;;;;13.32;5.87;;;30.40;66.10;;;;;;1871808;77;21155;-52
2021/06/21 07:36:05;;;;;;;11.45;5.47;;;30.50;66.30;;;;;;1871646;75;21105;-51
2021/06/21 07:38:34;;;;;;;12.80;5.17;;;30.60;65.50;;;;;;1890611;75;21019;-51
2021/06/21 07:41:04;;;;;;;11.60;4.80;;;30.70;65.20;;;;;;1912429;75;21105;-53
2021/06/21 07:43:33;;;;;;;13.25;5.50;;;30.80;65.10;;;;;;1907610;75;21050;-55
2021/06/21 07:46:04;;;;;;;6.95;4.42;;;30.90;65.10;;;;;;1868439;77;21161;-53
2021/06/21 07:48:35;;;;;;;15.48;4.72;;;31.00;64.10;;;;;;1861817;76;21027;-54
2021/06/21 07:51:05;;;;;;;9.73;4.78;;;31.00;63.40;;;;;;1862317;75;21647;-47
2021/06/21 07:53:35;;;;;;;8.20;4.28;;;31.00;63.30;;;;;;1891396;74;21155;-49
2021/06/21 07:56:05;;;;;;;13.25;8.85;;;31.00;63.30;;;;;;1912681;75;21159;-52
2021/06/21 07:58:39;;;;;;;9.73;4.00;;;31.10;63.70;;;;;;1913183;75;21070;-52
2021/06/21 08:01:11;;;;;;;7.47;4.17;;;31.20;63.30;;;;;;1913598;75;21092;-52
2021/06/21 08:03:44;;;;;;;11.35;4.33;;;31.40;63.30;;;;;;1906304;75;21126;-51
2021/06/21 08:06:26;;;;;;;8.75;4.75;;;31.50;62.80;;;;;;1883183;76;21050;-47
2021/06/21 08:09:07;;;;;;;9.97;4.77;;;31.50;62.70;;;;;;1881173;76;21078;-49
2021/06/21 08:11:47;;;;;;;14.55;5.70;;;31.60;62.60;;;;;;1877143;74;21435;-49
2021/06/21 08:14:30;;;;;;;11.05;6.42;;;31.60;62.80;;;;;;1882224;74;21015;-50
2021/06/21 08:17:12;;;;;;;5.92;3.83;;;31.60;62.30;;;;;;1882493;74;21099;-47
2021/06/21 08:19:53;;;;;;;9.18;4.17;;;31.60;62.10;;;;;;1901164;74;21022;-47
2021/06/21 08:22:35;;;;;;;5.67;3.37;;;31.70;62.80;;;;;;1881780;74;21205;-51
2021/06/21 08:25:16;;;;;;;6.22;3.25;;;31.80;62.20;;;;;;1920476;74;21018;-47
2021/06/21 08:27:57;;;;;;;8.73;3.30;;;31.80;61.20;;;;;;1882929;76;21150;-48
2021/06/21 08:30:31;;;;;;;12.35;3.33;;;31.70;61.10;;;;;;1918209;74;21085;-47
2021/06/21 08:33:13;;;;;;;8.83;3.25;;;31.70;61.20;;;;;;1922633;74;21099;-47
2021/06/21 08:35:45;;;;;;;7.17;3.37;;;31.80;61.50;;;;;;1920907;74;21081;-48
2021/06/21 08:38:14;;;;;;;7.95;3.62;;;31.70;61.80;;;;;;1922839;74;21038;-48
2021/06/21 08:40:43;;;;;;;9.28;3.50;;;31.70;62.00;;;;;;1922678;74;21085;-49
2021/06/21 08:43:13;;;;;;;13.25;4.15;;;31.60;61.70;;;;;;1922963;74;21030;-47
2021/06/21 08:45:44;;;;;;;7.75;3.20;;;31.70;61.90;;;;;;1922898;74;21034;-50
2021/06/21 08:48:13;;;;;;;8.05;4.10;;;31.80;61.40;;;;;;1922822;74;21080;-48
2021/06/21 08:50:43;;;;;;;9.48;3.50;;;31.90;62.30;;;;;;1888253;74;21132;-46
2021/06/21 08:53:13;;;;;;;7.10;3.35;;;31.90;61.50;;;;;;1879414;74;21073;-50
2021/06/21 08:55:44;;;;;;;5.83;2.85;;;31.90;61.40;;;;;;1889161;74;21046;-47
2021/06/21 08:58:13;;;;;;;7.10;3.30;;;32.10;61.40;;;;;;1875941;74;21113;-50
2021/06/21 09:00:44;;;;;;;8.68;3.35;;;32.10;60.60;;;;;;1882439;74;21031;-49
2021/06/21 09:03:14;;;;;;;6.25;3.12;;;32.20;60.30;;;;;;1905706;74;21132;-48
2021/06/21 09:05:45;;;;;;;10.98;3.75;;;32.20;60.30;;;;;;1883528;74;21026;-46
2021/06/21 09:08:14;;;;;;;16.27;3.77;;;32.20;60.40;;;;;;1875360;74;21156;-47
2021/06/21 09:10:43;;;;;;;10.25;4.83;;;32.20;60.30;;;;;;1874304;75;21084;-50
2021/06/21 09:13:17;;;;;;;6.92;3.45;;;32.20;59.80;;;;;;1873026;76;21458;-49
2021/06/21 09:15:52;;;;;;;6.33;3.52;;;32.20;60.10;;;;;;1873761;75;21136;-50
2021/06/21 09:18:34;;;;;;;7.55;3.25;;;32.20;59.90;;;;;;1881167;76;21041;-52
2021/06/21 09:21:26;;;;;;;8.35;3.30;;;32.10;60.00;;;;;;1881354;76;21053;-51
2021/06/21 09:23:57;;;;;;;16.02;3.90;;;32.10;60.10;;;;;;1882008;75;21092;-53
2021/06/21 09:26:32;;;;;;;10.65;3.35;;;32.10;60.60;;;;;;1880937;76;21057;-49
2021/06/21 09:29:04;;;;;;;4.60;3.10;;;32.10;60.50;;;;;;1881656;76;21075;-51
2021/06/21 09:31:51;;;;;;;7.55;3.40;;;32.20;60.40;;;;;;1881902;76;21033;-51
2021/06/21 09:34:22;;;;;;;9.03;3.60;;;32.20;60.20;;;;;;1880576;76;21228;-52
2021/06/21 09:36:53;;;;;;;13.65;4.00;;;32.20;60.00;;;;;;1882086;76;21073;-51
2021/06/21 09:39:32;;;;;;;9.45;3.83;;;32.20;59.90;;;;;;1881849;76;21017;-50
2021/06/21 09:42:26;;;;;;;12.88;3.80;;;32.20;60.60;;;;;;1881658;76;21002;-50
2021/06/21 09:44:58;;;;;;;9.63;3.30;;;32.20;60.20;;;;;;1882240;76;21099;-51
2021/06/21 09:47:38;;;;;;;10.40;3.60;;;32.30;60.20;;;;;;1881820;76;21167;-52
2021/06/21 09:50:10;;;;;;;11.10;3.47;;;32.30;59.80;;;;;;1883251;75;21089;-50
2021/06/21 09:52:45;;;;;;;9.20;3.77;;;32.30;59.80;;;;;;1836518;77;21022;-50
2021/06/21 09:55:32;;;;;;;9.93;3.72;;;32.50;59.90;;;;;;1834243;76;21690;-50
2021/06/21 09:58:22;;;;;;;5.60;2.95;;;32.50;59.60;;;;;;1834371;76;21026;-52
2021/06/21 10:00:53;;;;;;;7.75;3.40;;;32.60;59.30;;;;;;1836550;78;21122;-51
2021/06/21 10:03:27;;;;;;;13.13;3.42;;;32.60;59.30;;;;;;1836612;76;21042;-48
2021/06/21 10:06:14;;;;;;;9.10;3.40;;;32.70;59.10;;;;;;1806604;78;21006;-52
2021/06/21 10:08:46;;;;;;;8.25;3.00;;;32.60;59.30;;;;;;1805884;79;21167;-50
2021/06/21 10:11:30;;;;;;;11.50;4.22;;;32.70;59.10;;;;;;1830315;77;21057;-50
2021/06/21 10:14:02;;;;;;;8.18;3.42;;;32.70;59.40;;;;;;1836633;76;21069;-51
2021/06/21 10:16:31;;;;;;;10.50;3.25;;;32.70;59.40;;;;;;1836634;78;21101;-52
2021/06/21 10:19:01;;;;;;;9.13;3.15;;;32.70;59.60;;;;;;1836065;76;21084;-51
2021/06/21 10:21:31;;;;;;;8.28;3.80;;;32.80;59.50;;;;;;1835855;76;21190;-53
2021/06/21 10:24:01;;;;;;;12.20;3.90;;;32.90;59.50;;;;;;1841892;76;21069;-50
2021/06/21 10:26:30;;;;;;;13.60;3.52;;;32.90;59.70;;;;;;1883977;76;21006;-53
2021/06/21 10:29:00;;;;;;;11.35;3.55;;;33.00;59.20;;;;;;1883865;76;21088;-52
2021/06/21 10:31:31;;;;;;;7.83;3.65;;;33.00;59.30;;;;;;1883701;76;21662;-52
2021/06/21 10:34:05;;;;;;;6.05;3.08;;;33.00;58.60;;;;;;1884008;75;21026;-52
2021/06/21 10:36:52;;;;;;;17.40;3.85;;;32.90;59.00;;;;;;1883904;75;21112;-50
2021/06/21 10:39:30;;;;;;;10.85;3.45;;;32.90;59.10;;;;;;1883998;76;21014;-52
2021/06/21 10:42:11;;;;;;;8.65;3.00;;;32.90;59.60;;;;;;1884302;76;21047;-51
2021/06/21 10:44:59;;;;;;;11.70;3.70;;;33.00;59.40;;;;;;1883892;75;21505;-53
2021/06/21 10:47:31;;;;;;;10.53;3.40;;;33.10;59.40;;;;;;1883967;75;21030;-52
2021/06/21 10:50:21;;;;;;;13.85;3.77;;;33.10;58.90;;;;;;1883950;76;21034;-52
2021/06/21 10:52:53;;;;;;;6.62;3.15;;;33.10;58.60;;;;;;1883974;76;21039;-52
2021/06/21 10:55:32;;;;;;;9.80;3.17;;;33.10;58.70;;;;;;1883192;76;21042;-52
2021/06/21 10:58:14;;;;;;;7.85;3.35;;;33.20;58.20;;;;;;1880897;76;21563;-53
2021/06/21 11:00:46;;;;;;;9.43;3.50;;;33.20;57.90;;;;;;1883979;75;21163;-50
2021/06/21 11:03:32;;;;;;;7.62;3.50;;;33.30;58.50;;;;;;1881908;76;21034;-51
2021/06/21 11:06:09;;;;;;;12.63;3.70;;;33.30;58.10;;;;;;1874339;76;21114;-54
2021/06/21 11:08:45;;;;;;;10.60;3.85;;;33.30;58.30;;;;;;1874582;76;21082;-54
2021/06/21 11:11:38;;;;;;;10.25;3.37;;;33.40;58.40;;;;;;1874722;76;21054;-48
2021/06/21 11:14:20;;;;;;;6.80;3.90;;;33.40;58.20;;;;;;1874577;75;21054;-51
2021/06/21 11:16:52;;;;;;;8.55;3.55;;;33.40;58.20;;;;;;1874833;76;21039;-54
2021/06/21 11:19:26;;;;;;;9.93;3.62;;;33.40;58.20;;;;;;1875118;76;21093;-54
2021/06/21 11:22:01;;;;;;;7.53;2.90;;;33.30;58.20;;;;;;1875226;76;21105;-50
2021/06/21 11:24:48;;;;;;;9.63;3.70;;;33.40;58.50;;;;;;1869605;76;21063;-49
2021/06/21 11:27:24;;;;;;;9.23;3.85;;;33.50;58.80;;;;;;1863291;77;21046;-49
2021/06/21 11:30:01;;;;;;;12.25;3.42;;;33.50;58.90;;;;;;1839849;77;21011;-50
2021/06/21 11:32:29;;;;;;;5.00;3.27;;;33.60;58.70;;;;;;1863220;77;21035;-46
2021/06/21 11:35:01;;;;;;;8.98;3.80;;;33.60;58.70;;;;;;1863192;77;21055;-50
2021/06/21 11:37:35;;;;;;;6.53;3.30;;;33.60;58.30;;;;;;1863165;77;21164;-47
2021/06/21 11:40:22;;;;;;;12.47;3.42;;;33.70;58.20;;;;;;1863161;77;21043;-50
2021/06/21 11:43:05;;;;;;;7.72;3.37;;;33.70;58.30;;;;;;1861943;77;21081;-50
2021/06/21 11:45:56;;;;;;;12.03;3.65;;;33.70;58.40;;;;;;1863232;77;21473;-50
2021/06/21 11:48:37;;;;;;;13.30;3.50;;;33.80;58.20;;;;;;1863052;77;21085;-49
2021/06/21 11:51:18;;;;;;;11.33;3.70;;;33.80;58.20;;;;;;1863152;76;21137;-49
2021/06/21 11:53:48;;;;;;;17.23;8.45;;;33.70;58.40;;;;;;1863215;77;21090;-50
2021/06/21 11:56:25;;;;;;;13.25;4.60;;;33.60;58.50;;;;;;1863135;76;21022;-49
2021/06/21 11:58:56;;;;;;;10.38;3.35;;;33.60;58.30;;;;;;1863260;77;21023;-50
2021/06/21 12:01:27;;;;;;;14.00;4.00;;;33.60;58.40;;;;;;1863188;77;21110;-48
2021/06/21 12:03:58;;;;;;;8.50;3.50;;;33.60;58.50;;;;;;1863222;77;21529;-48
2021/06/21 12:06:29;;;;;;;10.82;3.90;;;33.60;58.70;;;;;;1863297;77;21426;-47
2021/06/21 12:08:58;;;;;;;4.47;2.98;;;33.50;58.90;;;;;;1863080;76;21093;-46
2021/06/21 12:11:30;;;;;;;12.03;3.87;;;33.50;58.70;;;;;;1863209;76;21035;-49
2021/06/21 12:14:02;;;;;;;14.80;4.12;;;33.40;58.80;;;;;;1863105;76;21039;-51
2021/06/21 12:16:33;;;;;;;8.88;3.25;;;33.40;59.20;;;;;;1863328;76;21026;-49
2021/06/21 12:19:04;;;;;;;9.58;3.60;;;33.50;59.10;;;;;;1863161;77;21043;-50
2021/06/21 12:21:39;;;;;;;16.48;4.92;;;33.40;59.00;;;;;;1863227;77;21043;-50
2021/06/21 12:24:20;;;;;;;17.45;4.20;;;33.40;59.20;;;;;;1865417;75;21608;-48
2021/06/21 12:26:52;;;;;;;17.12;5.17;;;33.40;59.10;;;;;;1897157;76;21046;-50
2021/06/21 12:29:33;;;;;;;29.65;6.62;;;33.40;59.50;;;;;;1897099;76;21014;-51
2021/06/21 12:32:08;;;;;;;32.15;6.40;;;33.30;59.80;;;;;;1897133;76;21080;-48
2021/06/21 12:35:00;;;;;;;38.75;6.28;;;33.30;60.40;;;;;;1897178;75;21067;-50
2021/06/21 12:37:35;;;;;;;39.67;7.78;;;33.40;60.40;;;;;;1897212;75;21046;-51
2021/06/21 12:40:16;;;;;;;46.80;8.75;;;33.50;60.00;;;;;;1896149;75;21159;-48
2021/06/21 12:42:46;;;;;;;44.95;8.15;;;33.50;60.00;;;;;;1897049;76;21030;-50
2021/06/21 12:45:17;;;;;;;31.20;6.55;;;33.60;60.10;;;;;;1897072;75;21006;-50
2021/06/21 12:47:53;;;;;;;32.63;6.47;;;33.70;60.00;;;;;;1897030;76;21034;-50
2021/06/21 12:50:24;;;;;;;50.43;8.13;;;33.70;59.70;;;;;;1897095;75;21034;-50
2021/06/21 12:52:55;;;;;;;50.70;9.10;;;33.60;59.90;;;;;;1897256;74;21096;-48
2021/06/21 12:55:26;;;;;;;56.10;9.10;;;33.50;60.00;;;;;;1897171;75;21033;-50
2021/06/21 12:58:00;;;;;;;65.40;8.80;;;33.40;60.50;;;;;;1897192;76;21034;-50
2021/06/21 13:00:39;;;;;;;;;;;33.30;60.60;;;;;;1900105;76;21022;-50
2021/06/21 13:03:10;;;;;;;66.85;10.35;;;33.30;60.10;;;;;;1897302;76;20163;-51
2021/06/21 13:05:58;;;;;;;62.95;13.48;;;33.10;60.60;;;;;;1897182;76;21447;-51
2021/06/21 13:08:37;;;;;;;66.62;17.45;;;33.00;60.70;;;;;;1896443;76;21077;-49